Terminal Aerodrome Forecast
Issued by NWS

Home | Current Version | Previous Version | Text Only | Print | Product List | Glossary On
Versions: 1 2 3 4 5 6 7 8 9 10 11 12 13 14
000
FTUS46 KOTX 252325
TAFMWH
TAF
KMWH 252325Z 2600/2624 20009KT P6SM SCT200
     FM260500 26004KT P6SM SCT100 BKN200
     FM261900 22009KT P6SM SKC=

USA.gov is the U.S. government's official web portal to all federal, state and local government web resources and services.